Time,TemperatureF,DewpointF,PressureIn,WindDirection,WindDirectionDegrees,WindSpeedMPH,WindSpeedGustMPH,Humidity,HourlyPrecipIn,Conditions,Clouds,dailyrainin,SolarRadiationWatts/m^2,SoftwareType,DateUTC
2013-04-06 00:21:00,44.5,42.0,30.06,NE,46,0.0,0.0,91,0.00,,,0.00,0,weatherlink.com 1.10,2013-04-06 04:21:00,
2013-04-06 00:36:00,44.4,42.0,30.07,NE,46,0.0,0.0,91,0.00,,,0.00,0,weatherlink.com 1.10,2013-04-06 04:36:00,
2013-04-06 00:51:00,44.2,42.0,30.07,NE,46,0.0,0.0,91,0.00,,,0.00,0,weatherlink.com 1.10,2013-04-06 04:51:00,
2013-04-06 01:06:00,43.8,42.0,30.07,NE,46,0.0,0.0,92,0.00,,,0.00,0,weatherlink.com 1.10,2013-04-06 05:06:00,
2013-04-06 01:21:00,43.5,41.0,30.07,NE,46,0.0,0.0,91,0.00,,,0.00,0,weatherlink.com 1.10,2013-04-06 05:21:00,
2013-04-06 01:36:00,43.3,41.0,30.08,NE,46,0.0,0.0,92,0.00,,,0.00,0,weatherlink.com 1.10,2013-04-06 05:36:00,
2013-04-06 01:51:00,43.0,41.0,30.08,NE,46,0.0,0.0,92,0.00,,,0.00,0,weatherlink.com 1.10,2013-04-06 05:51:00,
2013-04-06 02:06:00,42.9,41.0,30.09,NE,46,0.0,0.0,92,0.00,,,0.00,0,weatherlink.com 1.10,2013-04-06 06:06:00,
2013-04-06 02:21:00,42.6,41.0,30.09,NE,46,0.0,0.0,92,0.00,,,0.00,0,weatherlink.com 1.10,2013-04-06 06:21:00,
2013-04-06 02:36:00,42.5,41.0,30.09,NE,46,0.0,0.0,93,0.00,,,0.00,0,weatherlink.com 1.10,2013-04-06 06:36:00,
2013-04-06 02:51:00,42.4,41.0,30.09,NE,46,0.0,0.0,93,0.00,,,0.00,0,weatherlink.com 1.10,2013-04-06 06:51:00,
2013-04-06 03:06:00,42.5,41.0,30.09,NE,46,0.0,0.0,93,0.00,,,0.00,0,weatherlink.com 1.10,2013-04-06 07:06:00,
2013-04-06 03:21:00,42.6,41.0,30.10,NE,46,0.0,0.0,93,0.00,,,0.00,0,weatherlink.com 1.10,2013-04-06 07:21:00,
2013-04-06 03:36:00,42.7,41.0,30.10,NE,46,0.0,0.0,94,0.00,,,0.00,0,weatherlink.com 1.10,2013-04-06 07:36:00,
2013-04-06 03:51:00,42.7,41.0,30.10,NE,46,0.0,0.0,94,0.00,,,0.00,0,weatherlink.com 1.10,2013-04-06 07:51:00,
2013-04-06 04:06:00,42.7,41.0,30.10,NE,46,0.0,0.0,94,0.00,,,0.00,0,weatherlink.com 1.10,2013-04-06 08:06:00,
2013-04-06 04:21:00,42.7,41.0,30.10,NE,46,0.0,0.0,94,0.00,,,0.00,0,weatherlink.com 1.10,2013-04-06 08:21:00,
2013-04-06 04:36:00,42.7,41.0,30.11,NE,46,0.0,0.0,94,0.00,,,0.00,0,weatherlink.com 1.10,2013-04-06 08:36:00,
2013-04-06 05:06:00,42.4,41.0,30.11,NE,46,0.0,0.0,94,0.00,,,0.00,0,weatherlink.com 1.10,2013-04-06 09:06:00,
2013-04-06 05:21:00,42.3,41.0,30.11,NE,46,0.0,0.0,94,0.00,,,0.00,0,weatherlink.com 1.10,2013-04-06 09:21:00,
2013-04-06 05:37:00,42.1,41.0,30.11,NE,46,0.0,0.0,94,0.00,,,0.00,0,weatherlink.com 1.10,2013-04-06 09:37:00,
2013-04-06 05:51:00,42.0,40.0,30.12,NE,46,0.0,0.0,94,0.00,,,0.00,0,weatherlink.com 1.10,2013-04-06 09:51:00,
2013-04-06 06:06:00,41.8,40.0,30.12,NE,46,0.0,0.0,94,0.00,,,0.00,0,weatherlink.com 1.10,2013-04-06 10:06:00,
2013-04-06 06:21:00,41.6,40.0,30.12,NE,46,0.0,0.0,94,0.00,,,0.00,0,weatherlink.com 1.10,2013-04-06 10:21:00,
2013-04-06 06:36:00,41.9,41.0,30.13,NE,46,0.0,1.0,95,0.00,,,0.00,0,weatherlink.com 1.10,2013-04-06 10:36:00,
2013-04-06 06:51:00,41.5,40.0,30.13,NE,46,0.0,0.0,94,0.00,,,0.00,0,weatherlink.com 1.10,2013-04-06 10:51:00,
2013-04-06 07:07:00,41.1,40.0,30.13,NE,46,0.0,0.0,94,0.00,,,0.00,0,weatherlink.com 1.10,2013-04-06 11:07:00,
2013-04-06 07:22:00,41.2,40.0,30.14,NE,46,0.0,0.0,94,0.00,,,0.00,7,weatherlink.com 1.10,2013-04-06 11:22:00,
2013-04-06 07:37:00,41.3,40.0,30.15,NE,46,0.0,0.0,95,0.01,,,0.01,14,weatherlink.com 1.10,2013-04-06 11:37:00,
2013-04-06 07:52:00,41.4,40.0,30.16,NE,46,0.0,1.0,95,0.01,,,0.01,19,weatherlink.com 1.10,2013-04-06 11:52:00,
2013-04-06 08:07:00,41.6,40.0,30.17,NE,46,0.0,0.0,95,0.01,,,0.01,26,weatherlink.com 1.10,2013-04-06 12:07:00,
2013-04-06 08:22:00,42.7,41.0,30.18,NE,46,0.0,1.0,95,0.01,,,0.01,60,weatherlink.com 1.10,2013-04-06 12:22:00,
2013-04-06 08:37:00,44.1,43.0,30.18,NE,46,0.0,1.0,96,0.00,,,0.01,49,weatherlink.com 1.10,2013-04-06 12:37:00,
2013-04-06 08:52:00,47.5,47.0,30.18,NNE,24,0.0,3.0,96,0.00,,,0.01,47,weatherlink.com 1.10,2013-04-06 12:52:00,
2013-04-06 09:07:00,53.8,46.0,30.18,NE,45,1.0,4.0,76,0.00,,,0.01,336,weatherlink.com 1.10,2013-04-06 13:07:00,
2013-04-06 09:37:00,59.0,44.0,30.18,North,11,0.0,5.0,57,0.00,,,0.01,480,weatherlink.com 1.10,2013-04-06 13:37:00,
2013-04-06 09:52:00,60.2,43.0,30.18,East,80,0.0,8.0,54,0.00,,,0.01,534,weatherlink.com 1.10,2013-04-06 13:52:00,
2013-04-06 10:07:00,61.9,43.0,30.19,NE,47,0.0,8.0,50,0.00,,,0.01,582,weatherlink.com 1.10,2013-04-06 14:07:00,
2013-04-06 10:22:00,62.7,43.0,30.19,SE,137,5.0,8.0,48,0.00,,,0.01,628,weatherlink.com 1.10,2013-04-06 14:22:00,
2013-04-06 10:37:00,63.7,42.0,30.20,East,87,2.0,11.0,46,0.00,,,0.01,666,weatherlink.com 1.10,2013-04-06 14:37:00,
2013-04-06 10:52:00,64.8,42.0,30.20,East,82,2.0,10.0,44,0.00,,,0.01,708,weatherlink.com 1.10,2013-04-06 14:52:00,
2013-04-06 11:07:00,65.6,44.0,30.21,NNE,31,1.0,8.0,45,0.00,,,0.01,745,weatherlink.com 1.10,2013-04-06 15:07:00,
2013-04-06 11:23:00,66.4,42.0,30.20,East,84,0.0,8.0,42,0.00,,,0.01,779,weatherlink.com 1.10,2013-04-06 15:23:00,
2013-04-06 11:38:00,67.4,41.0,30.21,NNE,17,0.0,8.0,38,0.00,,,0.01,809,weatherlink.com 1.10,2013-04-06 15:38:00,
2013-04-06 11:53:00,67.7,42.0,30.21,NNE,13,3.0,7.0,40,0.00,,,0.01,840,weatherlink.com 1.10,2013-04-06 15:53:00,
2013-04-06 12:08:00,67.8,40.0,30.21,SE,146,0.0,18.0,36,0.00,,,0.01,863,weatherlink.com 1.10,2013-04-06 16:08:00,
2013-04-06 12:23:00,68.7,41.0,30.21,East,93,0.0,9.0,36,0.00,,,0.01,881,weatherlink.com 1.10,2013-04-06 16:23:00,
2013-04-06 12:38:00,68.7,39.0,30.20,East,95,1.0,9.0,34,0.00,,,0.01,900,weatherlink.com 1.10,2013-04-06 16:38:00,
2013-04-06 12:53:00,68.6,40.0,30.20,SE,128,1.0,5.0,35,0.00,,,0.01,909,weatherlink.com 1.10,2013-04-06 16:53:00,
2013-04-06 13:08:00,69.2,40.0,30.20,South,186,1.0,5.0,34,0.00,,,0.01,921,weatherlink.com 1.10,2013-04-06 17:08:00,
2013-04-06 13:23:00,70.3,39.0,30.20,East,94,0.0,8.0,32,0.00,,,0.01,482,weatherlink.com 1.10,2013-04-06 17:23:00,
2013-04-06 13:38:00,69.4,38.0,30.19,WSW,254,0.0,6.0,32,0.00,,,0.01,70,weatherlink.com 1.10,2013-04-06 17:38:00,
2013-04-06 13:53:00,70.1,40.0,30.19,East,88,0.0,3.0,34,0.00,,,0.01,278,weatherlink.com 1.10,2013-04-06 17:53:00,
2013-04-06 14:08:00,70.0,40.0,30.18,East,84,1.0,2.0,33,0.00,,,0.01,91,weatherlink.com 1.10,2013-04-06 18:08:00,
2013-04-06 14:23:00,70.5,39.0,30.18,ENE,62,0.0,7.0,32,0.00,,,0.01,107,weatherlink.com 1.10,2013-04-06 18:23:00,
2013-04-06 14:38:00,71.1,40.0,30.17,ESE,110,0.0,5.0,32,0.00,,,0.01,485,weatherlink.com 1.10,2013-04-06 18:38:00,
2013-04-06 14:53:00,71.8,40.0,30.16,East,96,6.0,7.0,32,0.00,,,0.01,118,weatherlink.com 1.10,2013-04-06 18:53:00,
2013-04-06 15:08:00,72.1,39.0,30.16,SW,216,0.0,3.0,30,0.00,,,0.01,424,weatherlink.com 1.10,2013-04-06 19:08:00,
2013-04-06 15:23:00,72.2,39.0,30.16,East,94,0.0,3.0,30,0.00,,,0.01,809,weatherlink.com 1.10,2013-04-06 19:23:00,
2013-04-06 15:38:00,72.4,40.0,30.16,SE,131,0.0,2.0,31,0.00,,,0.01,782,weatherlink.com 1.10,2013-04-06 19:38:00,
2013-04-06 15:53:00,72.8,40.0,30.15,NNE,31,0.0,2.0,31,0.00,,,0.01,745,weatherlink.com 1.10,2013-04-06 19:53:00,
2013-04-06 16:08:00,72.5,39.0,30.14,SW,232,3.0,4.0,30,0.00,,,0.01,712,weatherlink.com 1.10,2013-04-06 20:08:00,
2013-04-06 16:23:00,72.3,39.0,30.14,South,182,0.0,1.0,30,0.00,,,0.01,673,weatherlink.com 1.10,2013-04-06 20:23:00,
2013-04-06 16:38:00,73.4,40.0,30.14,SE,138,0.0,3.0,30,0.00,,,0.01,591,weatherlink.com 1.10,2013-04-06 20:38:00,
2013-04-06 16:53:00,72.5,40.0,30.13,WSW,243,0.0,4.0,31,0.00,,,0.01,548,weatherlink.com 1.10,2013-04-06 20:53:00,
2013-04-06 17:08:00,72.5,39.0,30.13,SE,142,0.0,3.0,30,0.00,,,0.01,446,weatherlink.com 1.10,2013-04-06 21:08:00,
2013-04-06 17:23:00,73.2,42.0,30.13,WNW,286,0.0,1.0,32,0.00,,,0.01,478,weatherlink.com 1.10,2013-04-06 21:23:00,
2013-04-06 17:38:00,72.6,41.0,30.13,South,188,0.0,3.0,32,0.00,,,0.01,274,weatherlink.com 1.10,2013-04-06 21:38:00,
2013-04-06 17:53:00,71.9,40.0,30.13,SSW,211,0.0,2.0,31,0.00,,,0.01,301,weatherlink.com 1.10,2013-04-06 21:53:00,
2013-04-06 18:08:00,71.0,40.0,30.13,SW,220,4.0,4.0,33,0.00,,,0.01,128,weatherlink.com 1.10,2013-04-06 22:08:00,
2013-04-06 18:23:00,70.3,41.0,30.14,WSW,238,0.0,3.0,35,0.00,,,0.01,90,weatherlink.com 1.10,2013-04-06 22:23:00,
2013-04-06 18:38:00,69.8,41.0,30.14,WSW,238,0.0,1.0,35,0.00,,,0.01,95,weatherlink.com 1.10,2013-04-06 22:38:00,
2013-04-06 18:53:00,69.7,41.0,30.14,WSW,238,0.0,1.0,36,0.00,,,0.01,81,weatherlink.com 1.10,2013-04-06 22:53:00,
2013-04-06 19:08:00,69.8,42.0,30.14,WSW,238,0.0,1.0,36,0.00,,,0.01,72,weatherlink.com 1.10,2013-04-06 23:08:00,
2013-04-06 19:23:00,69.2,41.0,30.14,WSW,238,0.0,1.0,36,0.00,,,0.01,32,weatherlink.com 1.10,2013-04-06 23:23:00,
2013-04-06 19:53:00,66.1,42.0,30.15,SSW,203,0.0,1.0,42,0.00,,,0.01,0,weatherlink.com 1.10,2013-04-06 23:53:00,
2013-04-06 20:08:00,63.3,43.0,30.16,SSW,203,0.0,0.0,48,0.00,,,0.01,0,weatherlink.com 1.10,2013-04-07 00:08:00,
2013-04-06 20:23:00,62.5,43.0,30.16,SSW,203,0.0,1.0,49,0.00,,,0.01,0,weatherlink.com 1.10,2013-04-07 00:23:00,
2013-04-06 20:38:00,62.5,42.0,30.16,SSW,203,0.0,1.0,48,0.00,,,0.01,0,weatherlink.com 1.10,2013-04-07 00:38:00,
2013-04-06 20:53:00,63.1,43.0,30.17,SW,215,0.0,5.0,48,0.00,,,0.01,0,weatherlink.com 1.10,2013-04-07 00:53:00,
2013-04-06 21:08:00,61.9,43.0,30.18,SW,216,0.0,1.0,51,0.00,,,0.01,0,weatherlink.com 1.10,2013-04-07 01:08:00,
2013-04-06 21:23:00,61.1,44.0,30.19,SW,215,0.0,3.0,53,0.00,,,0.01,0,weatherlink.com 1.10,2013-04-07 01:23:00,
2013-04-06 23:08:00,56.7,43.0,30.21,SW,217,0.0,3.0,60,0.00,,,0.01,0,weatherlink.com 1.10,2013-04-07 03:08:00,
2013-04-06 23:38:00,55.3,43.0,30.21,SW,217,0.0,2.0,63,0.00,,,0.01,0,weatherlink.com 1.10,2013-04-07 03:38:00,
2013-04-06 23:53:00,55.0,43.0,30.21,SSW,213,0.0,2.0,64,0.00,,,0.01,0,weatherlink.com 1.10,2013-04-07 03:53:00,